Katie Maurine — WDF7155 — position and weather

sailwx.info

Track history (hours):
 
Tides and Currents Weather Stations Pressure Air Temp Water Temp Dewpoint Dewpoint Depression Visibility Wind Speed Wind Dir Waves Ship Positions

Katie Maurine

Owner: M/V Katie Maurine, Granite City, IL. More information available from US FCC via Universal Licensing System and Coast Guard Vessel Documentation Center.

Last reported at 2018-May-15 14:20 UTC. Time now 2018-Jun-19 06:46 UTC.
Position N 38°38' W 090°11'.
Warning: this ship's position is 34 days out of date.

Length 11 m.

Type: Towing. MMSI: 367481650.

Date/timePositionNaut miles runAvg speedWind from/ knotsBaromVisibWave heightAir tempDewpointWater temp
2018-May-15 14:20N 38°38' W 090°11'0 0.8
2018-May-15 13:56N 38°38' W 090°11'0 0.3
2018-May-15 13:30N 38°38' W 090°11'0 0.4
2018-May-15 12:59N 38°38' W 090°11'0 0.0
2018-May-15 12:22N 38°38' W 090°11'0 0.9
2018-May-15 12:01N 38°38' W 090°11'2 3.1
2018-May-15 11:13N 38°35' W 090°12'0 0.0
2018-May-15 10:54N 38°35' W 090°12'0 0.0
2018-May-15 10:28N 38°35' W 090°12'3 6.5
2018-May-15 10:01N 38°38' W 090°11'0 0.0
2018-May-15 09:27N 38°38' W 090°11'0 1.0
2018-May-15 09:00N 38°39' W 090°11'0 0.2
2018-May-15 08:31N 38°38' W 090°11'0 0.0
2018-May-15 08:00N 38°38' W 090°11'0 0.0
2018-May-15 07:31N 38°38' W 090°11'0 0.4
2018-May-15 07:00N 38°38' W 090°11'0 0.2
2018-May-15 06:30N 38°38' W 090°11'0 0.1
2018-May-15 06:00N 38°38' W 090°11'0 0.1
2018-May-15 05:29N 38°38' W 090°11'1 2.4
2018-May-15 05:00N 38°37' W 090°11'1 1.7
2018-May-15 04:30N 38°38' W 090°11'1 1.2
2018-May-15 03:57N 38°39' W 090°11'1 1.1
2018-May-15 03:31N 38°38' W 090°11'0 0.3
2018-May-15 03:00N 38°38' W 090°11'0 0.1
2018-May-15 02:28N 38°38' W 090°11'0 0.0
2018-May-15 01:53N 38°38' W 090°11'1 1.6
2018-May-15 01:15N 38°39' W 090°11'0 0.6
2018-May-15 00:56N 38°39' W 090°11'1 2.2
2018-May-15 00:29N 38°38' W 090°11'0 0.8
2018-May-14 23:59N 38°38' W 090°11'2 4.6
2018-May-14 23:28N 38°36' W 090°11'1 0.8
2018-May-14 22:26N 38°35' W 090°12'0 0.0
2018-May-14 21:53N 38°35' W 090°12'0 0.0
2018-May-14 21:21N 38°35' W 090°12'0 0.1
2018-May-14 21:00N 38°35' W 090°12'0 0.1
2018-May-14 20:21N 38°35' W 090°12'0 0.4
2018-May-14 19:22N 38°36' W 090°12'0 0.9
2018-May-14 19:00N 38°35' W 090°12'0 0.5
2018-May-14 18:30N 38°36' W 090°12'0 0.2
2018-May-14 18:00N 38°36' W 090°12'0 0.1
2018-May-14 17:29N 38°36' W 090°12'0 0.4
2018-May-14 16:47N 38°35' W 090°12'0 0.6
2018-May-14 16:31N 38°36' W 090°12'0 0.0
2018-May-14 16:00N 38°36' W 090°12'0 0.4
2018-May-14 15:30N 38°35' W 090°12'0 0.5
2018-May-14 15:00N 38°36' W 090°12'0 0.1
2018-May-14 14:29N 38°36' W 090°12'0 0.6
2018-May-14 14:00N 38°35' W 090°12'0 0.0
2018-May-14 13:31N 38°35' W 090°12'0 0.2
2018-May-14 12:27N 38°36' W 090°12'0 0.5
2018-May-14 11:59N 38°35' W 090°12'0 0.2
2018-May-14 11:22N 38°35' W 090°12'0 0.2
2018-May-14 10:33N 38°35' W 090°12'0 1.9
2018-May-14 10:30N 38°35' W 090°12'0 0.5
2018-May-14 09:59N 38°36' W 090°12'0 0.1
2018-May-14 09:30N 38°36' W 090°12'0 0.1
2018-May-14 08:58N 38°36' W 090°12'0 0.2
2018-May-14 08:31N 38°36' W 090°12'0 0.1
2018-May-14 08:00N 38°36' W 090°12'1 1.1
2018-May-14 07:28N 38°35' W 090°12'0 0.3
2018-May-14 06:57N 38°35' W 090°12'1 0.1
2018-May-14 01:30N 38°36' W 090°12'2 3.6
2018-May-14 00:57N 38°37' W 090°11'2 4.0
2018-May-14 00:30N 38°39' W 090°11'4 0.5
2018-May-13 15:33N 38°35' W 090°12'0 0.0
2018-May-13 15:30N 38°35' W 090°12'0 0.6
2018-May-13 14:57N 38°35' W 090°12'0 0.3
2018-May-13 14:24N 38°36' W 090°12'0 0.1
2018-May-13 13:59N 38°36' W 090°12'0 0.1
2018-May-13 13:30N 38°36' W 090°12'0 0.1
2018-May-13 10:42N 38°35' W 090°12'0 0.0
2018-May-13 10:30N 38°35' W 090°12'1 0.9
2018-May-13 09:58N 38°36' W 090°12'0 0.6
2018-May-13 09:30N 38°35' W 090°12'0 0.0
2018-May-13 09:00N 38°35' W 090°12'0 0.0
2018-May-13 08:31N 38°35' W 090°12'0 0.0
2018-May-13 07:59N 38°35' W 090°12'0 0.0
2018-May-13 07:27N 38°35' W 090°12'0 0.6
2018-May-13 06:59N 38°36' W 090°12'0 0.1
2018-May-13 06:30N 38°36' W 090°12'0 0.2
2018-May-13 06:01N 38°36' W 090°12'0 0.2
2018-May-13 05:23N 38°36' W 090°12'0 0.1
2018-May-13 04:51N 38°36' W 090°12'0 0.6
2018-May-13 04:29N 38°36' W 090°12'0 0.3
2018-May-13 04:00N 38°36' W 090°12'0 0.2
2018-May-13 03:20N 38°35' W 090°12'0 0.0
2018-May-13 02:59N 38°35' W 090°12'0 0.0
2018-May-13 02:26N 38°35' W 090°12'3 1.8
2018-May-13 00:50N 38°38' W 090°11'0 0.1
2018-May-13 00:26N 38°38' W 090°11'0 0.1
2018-May-13 00:00N 38°38' W 090°11'3 4.7
2018-May-12 23:28N 38°36' W 090°12'0 0.2
2018-May-12 21:38N 38°35' W 090°12'0 0.1
2018-May-12 21:29N 38°35' W 090°12'0 0.1
2018-May-12 20:41N 38°35' W 090°12'0 0.1
2018-May-12 20:30N 38°36' W 090°12'0 0.3
2018-May-12 20:00N 38°36' W 090°12'0 0.2
2018-May-12 18:58N 38°36' W 090°12'2 3.8
2018-May-12 18:28N 38°37' W 090°11'2 3.1
2018-May-12 17:58N 38°36' W 090°12'1 0.4
2018-May-12 16:35N 38°35' W 090°12'0 0.0
2018-May-12 16:19N 38°35' W 090°12'0 0.0
2018-May-12 15:41N 38°35' W 090°12'0 0.0
2018-May-12 15:26N 38°35' W 090°12'0 0.0
2018-May-12 15:00N 38°35' W 090°12'0 0.0
2018-May-12 14:26N 38°35' W 090°12'1 0.8
2018-May-12 13:39N 38°36' W 090°12'1 7.3
2018-May-12 13:28N 38°37' W 090°11'0 0.4
2018-May-12 13:00N 38°37' W 090°11'2 3.0
2018-May-12 12:30N 38°36' W 090°12'0 0.1
2018-May-12 11:48N 38°36' W 090°12'0 0.1
2018-May-12 11:28N 38°36' W 090°12'0 0.3
2018-May-12 10:28N 38°35' W 090°12'3 0.8
2018-May-12 07:07N 38°38' W 090°11'1 9.5
2018-May-12 07:00N 38°39' W 090°11'2 4.1
2018-May-12 06:28N 38°41' W 090°12'2 3.8
2018-May-12 06:00N 38°39' W 090°11'0 0.0
2018-May-12 05:27N 38°39' W 090°11'0 0.0
2018-May-12 05:00N 38°39' W 090°11'0 0.1
2018-May-12 04:30N 38°39' W 090°11'0 0.9
2018-May-12 04:00N 38°39' W 090°11'3 6.1
2018-May-12 03:29N 38°36' W 090°11'2 4.8
2018-May-12 03:00N 38°38' W 090°11'0 1.0
2018-May-12 02:30N 38°39' W 090°11'0 0.6
2018-May-12 01:53N 38°38' W 090°11'0 0.1
2018-May-12 01:23N 38°38' W 090°11'0 1.1
2018-May-12 01:00N 38°39' W 090°11'1 0.9
2018-May-12 00:25N 38°38' W 090°11'0 0.2
2018-May-12 00:00N 38°38' W 090°11'3 4.9
2018-May-11 23:26N 38°35' W 090°12'0 0.1
2018-May-11 19:54N 38°36' W 090°12'0 0.2
2018-May-11 18:01N 38°35' W 090°12'0 0.0
2018-May-11 18:00N 38°35' W 090°12'1 1.0
2018-May-11 17:21N 38°36' W 090°12'2 5.8
2018-May-11 16:58N 38°38' W 090°11'0 0.1
2018-May-11 16:27N 38°38' W 090°11'0 0.1
2018-May-11 16:00N 38°38' W 090°11'0 0.0
2018-May-11 15:16N 38°38' W 090°11'0 0.5
2018-May-11 14:59N 38°38' W 090°11'4 2.4
2018-May-11 13:11N 38°34' W 090°13'0 0.3
2018-May-11 12:55N 38°34' W 090°13'2 3.0
2018-May-11 12:19N 38°36' W 090°12'0 0.1
2018-May-11 12:00N 38°36' W 090°12'0 0.0
2018-May-11 11:31N 38°36' W 090°12'0 0.8
2018-May-11 11:00N 38°35' W 090°12'0 0.2
2018-May-11 10:20N 38°35' W 090°12'0 0.1
2018-May-11 09:56N 38°35' W 090°12'0 0.4
2018-May-11 09:29N 38°35' W 090°12'0 0.0
2018-May-11 08:58N 38°35' W 090°12'0 0.1
2018-May-11 08:31N 38°35' W 090°12'0 0.3
2018-May-11 08:00N 38°35' W 090°12'0 0.0
2018-May-11 07:30N 38°35' W 090°12'0 0.1
2018-May-11 07:01N 38°35' W 090°12'0 0.0
2018-May-11 06:31N 38°35' W 090°12'0 0.1
2018-May-11 04:35N 38°35' W 090°12'0 0.0
2018-May-11 04:27N 38°35' W 090°12'0 0.8
2018-May-11 04:00N 38°36' W 090°12'0 0.4
2018-May-11 03:30N 38°35' W 090°12'0 0.4
2018-May-11 02:57N 38°35' W 090°12'1 3.0
2018-May-11 02:30N 38°37' W 090°11'0 0.1
2018-May-11 01:59N 38°36' W 090°11'1 2.3
2018-May-11 01:30N 38°35' W 090°12'0 0.0
2018-May-10 21:42N 38°36' W 090°12'0 0.2
2018-May-10 21:30N 38°36' W 090°12'0 0.1
2018-May-10 20:56N 38°36' W 090°12'0 0.1
2018-May-10 20:21N 38°36' W 090°12'0 0.4
2018-May-10 20:00N 38°36' W 090°12'0 0.5
2018-May-10 19:25N 38°35' W 090°12'0 0.3
2018-May-10 18:16N 38°36' W 090°12'0 0.0
2018-May-10 17:59N 38°36' W 090°12'0 0.2
2018-May-10 17:30N 38°36' W 090°12'0 0.3
2018-May-10 17:00N 38°36' W 090°12'0 0.1
2018-May-10 13:58N 38°35' W 090°12'0 0.5
2018-May-10 13:26N 38°36' W 090°12'0 1.0
2018-May-10 13:00N 38°35' W 090°12'0 0.1
2018-May-10 12:31N 38°35' W 090°12'0 0.6
2018-May-10 12:00N 38°35' W 090°12'0 0.0
2018-May-10 11:28N 38°35' W 090°12'0 0.0
2018-May-10 11:00N 38°35' W 090°12'0 0.2
2018-May-10 10:30N 38°35' W 090°12'0 0.3
2018-May-10 10:00N 38°35' W 090°12'0 0.0
2018-May-10 09:28N 38°35' W 090°12'0 0.0
2018-May-10 08:58N 38°35' W 090°12'0 0.2
2018-May-10 08:29N 38°35' W 090°12'0 0.4
2018-May-10 08:00N 38°35' W 090°12'0 0.3
2018-May-10 07:30N 38°36' W 090°12'0 0.2
2018-May-10 06:58N 38°35' W 090°12'0 0.7
2018-May-10 06:30N 38°35' W 090°12'1 2.2
2018-May-10 05:59N 38°34' W 090°13'1 2.5
2018-May-10 05:30N 38°35' W 090°12'0 0.1
2018-May-10 05:00N 38°35' W 090°12'0 0.1
2018-May-10 04:25N 38°35' W 090°12'0 0.4
2018-May-10 03:56N 38°35' W 090°12'0 0.3
2018-May-10 03:29N 38°35' W 090°12'0 0.0
2018-May-10 02:41N 38°35' W 090°12'0 0.2
2018-May-10 02:30N 38°35' W 090°12'0 0.1
2018-May-10 01:54N 38°35' W 090°12'0 0.4
2018-May-10 01:24N 38°35' W 090°12'0 0.4
2018-May-10 01:00N 38°35' W 090°12'0 0.1
2018-May-10 00:27N 38°35' W 090°12'0 0.2
2018-May-10 00:00N 38°35' W 090°12'0 0.5
2018-May-09 23:30N 38°36' W 090°12'0 0.4
2018-May-09 22:58N 38°35' W 090°12'4 0.3
2018-May-09 08:24N 38°39' W 090°11'1 3.0
2018-May-09 07:58N 38°38' W 090°11'2 2.6
2018-May-09 07:22N 38°36' W 090°11'1 2.1
2018-May-09 07:00N 38°36' W 090°12'0 0.0
2018-May-08 22:29N 38°35' W 090°12'3 4.4
2018-May-08 21:48N 38°38' W 090°11'0 0.0
2018-May-08 21:25N 38°38' W 090°11'0 0.0
2018-May-08 20:59N 38°38' W 090°11'0 0.0
2018-May-08 20:27N 38°38' W 090°11'0 0.4
2018-May-08 20:00N 38°38' W 090°11'0 0.8
2018-May-08 19:25N 38°38' W 090°11'2 3.7
2018-May-08 19:00N 38°39' W 090°11'0 0.7
2018-May-08 18:31N 38°39' W 090°11'1 1.2
2018-May-08 18:00N 38°38' W 090°11'1 0.9
2018-May-08 17:25N 38°38' W 090°11'1 1.6
2018-May-08 17:01N 38°39' W 090°11'1 1.5
2018-May-08 16:31N 38°39' W 090°11'0 0.1
2018-May-08 16:01N 38°39' W 090°11'0 0.1
2018-May-08 15:27N 38°39' W 090°11'1 1.1
2018-May-08 14:56N 38°39' W 090°11'1 1.4
2018-May-08 14:21N 38°38' W 090°11'1 1.7
2018-May-08 14:00N 38°39' W 090°11'0 0.9
2018-May-08 13:30N 38°38' W 090°11'0 0.1
2018-May-08 13:00N 38°38' W 090°11'0 0.6
2018-May-08 12:29N 38°38' W 090°11'2 4.5
2018-May-08 12:01N 38°36' W 090°11'1 2.2
2018-May-08 11:30N 38°35' W 090°12'0 0.0
2018-May-08 10:48N 38°35' W 090°12'0 1.1
2018-May-08 10:30N 38°36' W 090°12'0 0.1
2018-May-08 10:00N 38°36' W 090°12'0 0.0
2018-May-08 09:30N 38°36' W 090°12'0 0.0
2018-May-08 09:00N 38°36' W 090°12'0 0.0
2018-May-08 08:30N 38°36' W 090°12'0 0.5
2018-May-08 07:58N 38°35' W 090°12'0 0.6
2018-May-08 07:31N 38°35' W 090°12'0 0.0
2018-May-08 06:59N 38°35' W 090°12'0 0.1
2018-May-08 06:30N 38°35' W 090°12'0 0.2
2018-May-08 06:00N 38°35' W 090°12'0 0.2
2018-May-08 05:30N 38°35' W 090°12'0 0.3
2018-May-08 04:59N 38°35' W 090°12'0 0.0
2018-May-08 04:31N 38°35' W 090°12'0 0.6
2018-May-08 03:58N 38°36' W 090°12'0 0.9
2018-May-08 03:30N 38°35' W 090°12'1 2.3
2018-May-08 02:59N 38°34' W 090°13'1 2.7
2018-May-08 02:28N 38°35' W 090°12'1 1.1
2018-May-08 02:00N 38°36' W 090°12'0 0.5
2018-May-08 01:31N 38°35' W 090°12'0 0.4
2018-May-08 01:00N 38°36' W 090°12'0 0.1
2018-May-08 00:30N 38°36' W 090°12'0 0.0
2018-May-07 23:51N 38°36' W 090°12'0 0.7
2018-May-07 23:30N 38°36' W 090°12'1 0.5
2018-May-07 22:25N 38°35' W 090°12'0 0.4
2018-May-07 22:01N 38°35' W 090°12'0 0.1
2018-May-07 21:29N 38°35' W 090°12'1 0.9
2018-May-07 20:45N 38°36' W 090°12'1 2.3
2018-May-07 20:29N 38°35' W 090°12'0 0.3
2018-May-07 19:57N 38°35' W 090°12'0 0.1
2018-May-07 19:27N 38°36' W 090°12'0 0.2
2018-May-07 19:00N 38°35' W 090°12'0 0.3
2018-May-07 18:26N 38°36' W 090°12'0 0.1
2018-May-07 17:10N 38°35' W 090°12'0 0.0
2018-May-07 17:00N 38°35' W 090°12'0 0.0
2018-May-07 16:26N 38°35' W 090°12'0 0.1
2018-May-07 15:53N 38°35' W 090°12'0 0.2
2018-May-07 15:31N 38°35' W 090°12'0 0.3
2018-May-07 15:00N 38°35' W 090°12'0 0.1
2018-May-07 14:29N 38°35' W 090°12'0 0.2
2018-May-07 12:42N 38°36' W 090°12'0 1.1
2018-May-07 12:29N 38°35' W 090°12'0 0.1
2018-May-07 12:00N 38°35' W 090°12'0 0.1
2018-May-07 10:44N 38°35' W 090°12'2 7.1
2018-May-07 10:29N 38°37' W 090°11'2 5.0
2018-May-07 09:59N 38°39' W 090°11'0 0.3
2018-May-07 09:28N 38°39' W 090°11'0 0.1
2018-May-07 09:01N 38°39' W 090°11'0 0.1
2018-May-07 08:29N 38°39' W 090°11'0 0.1
2018-May-07 08:00N 38°39' W 090°11'0 0.4
2018-May-07 07:30N 38°39' W 090°11'2 3.2
2018-May-07 07:00N 38°38' W 090°11'2 3.2
2018-May-07 06:30N 38°36' W 090°11'0 0.5
2018-May-07 05:54N 38°36' W 090°12'0 0.2
2018-May-07 05:30N 38°36' W 090°12'0 0.1
2018-May-07 05:00N 38°36' W 090°12'0 0.1
2018-May-07 04:30N 38°36' W 090°12'0 0.0
2018-May-07 04:01N 38°36' W 090°12'0 0.3
2018-May-07 03:27N 38°36' W 090°12'0 0.1
2018-May-07 02:41N 38°35' W 090°12'0 0.3
2018-May-07 02:30N 38°35' W 090°12'0 0.4
2018-May-07 01:49N 38°36' W 090°12'0 1.3
2018-May-07 01:28N 38°35' W 090°12'0 0.1
2018-May-07 00:50N 38°35' W 090°12'0 0.1
2018-May-07 00:30N 38°35' W 090°12'0 0.1
2018-May-06 23:59N 38°35' W 090°12'0 0.2
2018-May-06 23:26N 38°35' W 090°12'0 0.1
2018-May-06 21:37N 38°35' W 090°12'0 0.1
2018-May-06 19:43N 38°35' W 090°12'0 0.0
2018-May-06 19:20N 38°35' W 090°12'0 0.0
2018-May-06 18:03N 38°35' W 090°12'0 0.1
2018-May-06 18:01N 38°35' W 090°12'0 0.0
2018-May-06 17:31N 38°35' W 090°12'0 0.0
2018-May-06 16:57N 38°35' W 090°12'0 0.0
2018-May-06 16:30N 38°35' W 090°12'0 0.2
2018-May-06 14:37N 38°35' W 090°12'0 0.2
2018-May-06 14:30N 38°35' W 090°12'0 0.2
2018-May-06 14:01N 38°35' W 090°12'0 0.5
2018-May-06 13:31N 38°35' W 090°12'0 0.0
2018-May-06 12:54N 38°35' W 090°12'1 2.1
2018-May-06 12:30N 38°36' W 090°11'1 1.5
2018-May-06 12:00N 38°36' W 090°12'0 0.4
2018-May-06 11:31N 38°35' W 090°12'0 0.0
2018-May-06 11:00N 38°35' W 090°12'0 0.2
2018-May-06 10:30N 38°35' W 090°12'0 0.2
2018-May-06 10:01N 38°36' W 090°12'0 0.2
2018-May-06 09:29N 38°35' W 090°12'0 0.3
2018-May-06 09:00N 38°36' W 090°12'0 0.1
2018-May-06 06:58N 38°35' W 090°12'0 0.1
2018-May-06 05:43N 38°36' W 090°12'0 0.8
2018-May-06 05:28N 38°36' W 090°12'0 0.4
2018-May-06 05:00N 38°35' W 090°12'0 0.3
2018-May-06 04:26N 38°36' W 090°12'2 4.3
2018-May-06 04:01N 38°37' W 090°11'1 1.7
2018-May-06 03:26N 38°38' W 090°11'1 1.4
2018-May-06 02:59N 38°39' W 090°11'1 1.3
2018-May-06 02:29N 38°39' W 090°11'2 4.2
2018-May-06 02:01N 38°37' W 090°11'2 4.5
2018-May-06 01:30N 38°35' W 090°12'0 0.9
2018-May-06 01:00N 38°36' W 090°12'0 0.8
2018-May-06 00:30N 38°35' W 090°12'0 0.3
2018-May-06 00:00N 38°35' W 090°12'0 0.0
2018-May-05 20:47N 38°35' W 090°12'0 0.1
2018-May-05 20:22N 38°35' W 090°12'0 0.7
2018-May-05 19:52N 38°35' W 090°12'0 0.9
2018-May-05 19:29N 38°35' W 090°12'1 1.3
2018-May-05 18:35N 38°36' W 090°11'0 4.7
2018-May-05 18:30N 38°36' W 090°11'1 2.3
2018-May-05 17:58N 38°35' W 090°12'5 3.3
2018-May-05 16:20N 38°41' W 090°11'  
Track history (hours):
 
Tides and Currents Weather Stations Pressure Air Temp Water Temp Dewpoint Dewpoint Depression Visibility Wind Speed Wind Dir Waves Ship Positions

Katie Maurine

Owner: M/V Katie Maurine, Granite City, IL. More information available from US FCC via Universal Licensing System and Coast Guard Vessel Documentation Center.

Last reported at 2018-May-15 14:20 UTC. Time now 2018-Jun-19 06:46 UTC.
Position N 38°38' W 090°11'.
Warning: this ship's position is 34 days out of date.

Length 11 m.

Type: Towing. MMSI: 367481650.

Date/timePositionNaut miles runAvg speedWind from/ knotsBaromVisibWave heightAir tempDewpointWater temp
2018-May-15 14:20N 38°38' W 090°11'0 0.8
2018-May-15 13:56N 38°38' W 090°11'0 0.3
2018-May-15 13:30N 38°38' W 090°11'0 0.4
2018-May-15 12:59N 38°38' W 090°11'0 0.0
2018-May-15 12:22N 38°38' W 090°11'0 0.9
2018-May-15 12:01N 38°38' W 090°11'2 3.1
2018-May-15 11:13N 38°35' W 090°12'0 0.0
2018-May-15 10:54N 38°35' W 090°12'0 0.0
2018-May-15 10:28N 38°35' W 090°12'3 6.5
2018-May-15 10:01N 38°38' W 090°11'0 0.0
2018-May-15 09:27N 38°38' W 090°11'0 1.0
2018-May-15 09:00N 38°39' W 090°11'0 0.2
2018-May-15 08:31N 38°38' W 090°11'0 0.0
2018-May-15 08:00N 38°38' W 090°11'0 0.0
2018-May-15 07:31N 38°38' W 090°11'0 0.4
2018-May-15 07:00N 38°38' W 090°11'0 0.2
2018-May-15 06:30N 38°38' W 090°11'0 0.1
2018-May-15 06:00N 38°38' W 090°11'0 0.1
2018-May-15 05:29N 38°38' W 090°11'1 2.4
2018-May-15 05:00N 38°37' W 090°11'1 1.7
2018-May-15 04:30N 38°38' W 090°11'1 1.2
2018-May-15 03:57N 38°39' W 090°11'1 1.1
2018-May-15 03:31N 38°38' W 090°11'0 0.3
2018-May-15 03:00N 38°38' W 090°11'0 0.1
2018-May-15 02:28N 38°38' W 090°11'0 0.0
2018-May-15 01:53N 38°38' W 090°11'1 1.6
2018-May-15 01:15N 38°39' W 090°11'0 0.6
2018-May-15 00:56N 38°39' W 090°11'1 2.2
2018-May-15 00:29N 38°38' W 090°11'0 0.8
2018-May-14 23:59N 38°38' W 090°11'2 4.6
2018-May-14 23:28N 38°36' W 090°11'1 0.8
2018-May-14 22:26N 38°35' W 090°12'0 0.0
2018-May-14 21:53N 38°35' W 090°12'0 0.0
2018-May-14 21:21N 38°35' W 090°12'0 0.1
2018-May-14 21:00N 38°35' W 090°12'0 0.1
2018-May-14 20:21N 38°35' W 090°12'0 0.4
2018-May-14 19:22N 38°36' W 090°12'0 0.9
2018-May-14 19:00N 38°35' W 090°12'0 0.5
2018-May-14 18:30N 38°36' W 090°12'0 0.2
2018-May-14 18:00N 38°36' W 090°12'0 0.1
2018-May-14 17:29N 38°36' W 090°12'0 0.4
2018-May-14 16:47N 38°35' W 090°12'0 0.6
2018-May-14 16:31N 38°36' W 090°12'0 0.0
2018-May-14 16:00N 38°36' W 090°12'0 0.4
2018-May-14 15:30N 38°35' W 090°12'0 0.5
2018-May-14 15:00N 38°36' W 090°12'0 0.1
2018-May-14 14:29N 38°36' W 090°12'0 0.6
2018-May-14 14:00N 38°35' W 090°12'0 0.0
2018-May-14 13:31N 38°35' W 090°12'0 0.2
2018-May-14 12:27N 38°36' W 090°12'0 0.5
2018-May-14 11:59N 38°35' W 090°12'0 0.2
2018-May-14 11:22N 38°35' W 090°12'0 0.2
2018-May-14 10:33N 38°35' W 090°12'0 1.9
2018-May-14 10:30N 38°35' W 090°12'0 0.5
2018-May-14 09:59N 38°36' W 090°12'0 0.1
2018-May-14 09:30N 38°36' W 090°12'0 0.1
2018-May-14 08:58N 38°36' W 090°12'0 0.2
2018-May-14 08:31N 38°36' W 090°12'0 0.1
2018-May-14 08:00N 38°36' W 090°12'1 1.1
2018-May-14 07:28N 38°35' W 090°12'0 0.3
2018-May-14 06:57N 38°35' W 090°12'1 0.1
2018-May-14 01:30N 38°36' W 090°12'2 3.6
2018-May-14 00:57N 38°37' W 090°11'2 4.0
2018-May-14 00:30N 38°39' W 090°11'4 0.5
2018-May-13 15:33N 38°35' W 090°12'0 0.0
2018-May-13 15:30N 38°35' W 090°12'0 0.6
2018-May-13 14:57N 38°35' W 090°12'0 0.3
2018-May-13 14:24N 38°36' W 090°12'0 0.1
2018-May-13 13:59N 38°36' W 090°12'0 0.1
2018-May-13 13:30N 38°36' W 090°12'0 0.1
2018-May-13 10:42N 38°35' W 090°12'0 0.0
2018-May-13 10:30N 38°35' W 090°12'1 0.9
2018-May-13 09:58N 38°36' W 090°12'0 0.6
2018-May-13 09:30N 38°35' W 090°12'0 0.0
2018-May-13 09:00N 38°35' W 090°12'0 0.0
2018-May-13 08:31N 38°35' W 090°12'0 0.0
2018-May-13 07:59N 38°35' W 090°12'0 0.0
2018-May-13 07:27N 38°35' W 090°12'0 0.6
2018-May-13 06:59N 38°36' W 090°12'0 0.1
2018-May-13 06:30N 38°36' W 090°12'0 0.2
2018-May-13 06:01N 38°36' W 090°12'0 0.2
2018-May-13 05:23N 38°36' W 090°12'0 0.1
2018-May-13 04:51N 38°36' W 090°12'0 0.6
2018-May-13 04:29N 38°36' W 090°12'0 0.3
2018-May-13 04:00N 38°36' W 090°12'0 0.2
2018-May-13 03:20N 38°35' W 090°12'0 0.0
2018-May-13 02:59N 38°35' W 090°12'0 0.0
2018-May-13 02:26N 38°35' W 090°12'3 1.8
2018-May-13 00:50N 38°38' W 090°11'0 0.1
2018-May-13 00:26N 38°38' W 090°11'0 0.1
2018-May-13 00:00N 38°38' W 090°11'3 4.7
2018-May-12 23:28N 38°36' W 090°12'0 0.2
2018-May-12 21:38N 38°35' W 090°12'0 0.1
2018-May-12 21:29N 38°35' W 090°12'0 0.1
2018-May-12 20:41N 38°35' W 090°12'0 0.1
2018-May-12 20:30N 38°36' W 090°12'0 0.3
2018-May-12 20:00N 38°36' W 090°12'0 0.2
2018-May-12 18:58N 38°36' W 090°12'2 3.8
2018-May-12 18:28N 38°37' W 090°11'2 3.1
2018-May-12 17:58N 38°36' W 090°12'1 0.4
2018-May-12 16:35N 38°35' W 090°12'0 0.0
2018-May-12 16:19N 38°35' W 090°12'0 0.0
2018-May-12 15:41N 38°35' W 090°12'0 0.0
2018-May-12 15:26N 38°35' W 090°12'0 0.0
2018-May-12 15:00N 38°35' W 090°12'0 0.0
2018-May-12 14:26N 38°35' W 090°12'1 0.8
2018-May-12 13:39N 38°36' W 090°12'1 7.3
2018-May-12 13:28N 38°37' W 090°11'0 0.4
2018-May-12 13:00N 38°37' W 090°11'2 3.0
2018-May-12 12:30N 38°36' W 090°12'0 0.1
2018-May-12 11:48N 38°36' W 090°12'0 0.1
2018-May-12 11:28N 38°36' W 090°12'0 0.3
2018-May-12 10:28N 38°35' W 090°12'3 0.8
2018-May-12 07:07N 38°38' W 090°11'1 9.5
2018-May-12 07:00N 38°39' W 090°11'2 4.1
2018-May-12 06:28N 38°41' W 090°12'2 3.8
2018-May-12 06:00N 38°39' W 090°11'0 0.0
2018-May-12 05:27N 38°39' W 090°11'0 0.0
2018-May-12 05:00N 38°39' W 090°11'0 0.1
2018-May-12 04:30N 38°39' W 090°11'0 0.9
2018-May-12 04:00N 38°39' W 090°11'3 6.1
2018-May-12 03:29N 38°36' W 090°11'2 4.8
2018-May-12 03:00N 38°38' W 090°11'0 1.0
2018-May-12 02:30N 38°39' W 090°11'0 0.6
2018-May-12 01:53N 38°38' W 090°11'0 0.1
2018-May-12 01:23N 38°38' W 090°11'0 1.1
2018-May-12 01:00N 38°39' W 090°11'1 0.9
2018-May-12 00:25N 38°38' W 090°11'0 0.2
2018-May-12 00:00N 38°38' W 090°11'3 4.9
2018-May-11 23:26N 38°35' W 090°12'0 0.1
2018-May-11 19:54N 38°36' W 090°12'0 0.2
2018-May-11 18:01N 38°35' W 090°12'0 0.0
2018-May-11 18:00N 38°35' W 090°12'1 1.0
2018-May-11 17:21N 38°36' W 090°12'2 5.8
2018-May-11 16:58N 38°38' W 090°11'0 0.1
2018-May-11 16:27N 38°38' W 090°11'0 0.1
2018-May-11 16:00N 38°38' W 090°11'0 0.0
2018-May-11 15:16N 38°38' W 090°11'0 0.5
2018-May-11 14:59N 38°38' W 090°11'4 2.4
2018-May-11 13:11N 38°34' W 090°13'0 0.3
2018-May-11 12:55N 38°34' W 090°13'2 3.0
2018-May-11 12:19N 38°36' W 090°12'0 0.1
2018-May-11 12:00N 38°36' W 090°12'0 0.0
2018-May-11 11:31N 38°36' W 090°12'0 0.8
2018-May-11 11:00N 38°35' W 090°12'0 0.2
2018-May-11 10:20N 38°35' W 090°12'0 0.1
2018-May-11 09:56N 38°35' W 090°12'0 0.4
2018-May-11 09:29N 38°35' W 090°12'0 0.0
2018-May-11 08:58N 38°35' W 090°12'0 0.1
2018-May-11 08:31N 38°35' W 090°12'0 0.3
2018-May-11 08:00N 38°35' W 090°12'0 0.0
2018-May-11 07:30N 38°35' W 090°12'0 0.1
2018-May-11 07:01N 38°35' W 090°12'0 0.0
2018-May-11 06:31N 38°35' W 090°12'0 0.1
2018-May-11 04:35N 38°35' W 090°12'0 0.0
2018-May-11 04:27N 38°35' W 090°12'0 0.8
2018-May-11 04:00N 38°36' W 090°12'0 0.4
2018-May-11 03:30N 38°35' W 090°12'0 0.4
2018-May-11 02:57N 38°35' W 090°12'1 3.0
2018-May-11 02:30N 38°37' W 090°11'0 0.1
2018-May-11 01:59N 38°36' W 090°11'1 2.3
2018-May-11 01:30N 38°35' W 090°12'0 0.0
2018-May-10 21:42N 38°36' W 090°12'0 0.2
2018-May-10 21:30N 38°36' W 090°12'0 0.1
2018-May-10 20:56N 38°36' W 090°12'0 0.1
2018-May-10 20:21N 38°36' W 090°12'0 0.4
2018-May-10 20:00N 38°36' W 090°12'0 0.5
2018-May-10 19:25N 38°35' W 090°12'0 0.3
2018-May-10 18:16N 38°36' W 090°12'0 0.0
2018-May-10 17:59N 38°36' W 090°12'0 0.2
2018-May-10 17:30N 38°36' W 090°12'0 0.3
2018-May-10 17:00N 38°36' W 090°12'0 0.1
2018-May-10 13:58N 38°35' W 090°12'0 0.5
2018-May-10 13:26N 38°36' W 090°12'0 1.0
2018-May-10 13:00N 38°35' W 090°12'0 0.1
2018-May-10 12:31N 38°35' W 090°12'0 0.6
2018-May-10 12:00N 38°35' W 090°12'0 0.0
2018-May-10 11:28N 38°35' W 090°12'0 0.0
2018-May-10 11:00N 38°35' W 090°12'0 0.2
2018-May-10 10:30N 38°35' W 090°12'0 0.3
2018-May-10 10:00N 38°35' W 090°12'0 0.0
2018-May-10 09:28N 38°35' W 090°12'0 0.0
2018-May-10 08:58N 38°35' W 090°12'0 0.2
2018-May-10 08:29N 38°35' W 090°12'0 0.4
2018-May-10 08:00N 38°35' W 090°12'0 0.3
2018-May-10 07:30N 38°36' W 090°12'0 0.2
2018-May-10 06:58N 38°35' W 090°12'0 0.7
2018-May-10 06:30N 38°35' W 090°12'1 2.2
2018-May-10 05:59N 38°34' W 090°13'1 2.5
2018-May-10 05:30N 38°35' W 090°12'0 0.1
2018-May-10 05:00N 38°35' W 090°12'0 0.1
2018-May-10 04:25N 38°35' W 090°12'0 0.4
2018-May-10 03:56N 38°35' W 090°12'0 0.3
2018-May-10 03:29N 38°35' W 090°12'0 0.0
2018-May-10 02:41N 38°35' W 090°12'0 0.2
2018-May-10 02:30N 38°35' W 090°12'0 0.1
2018-May-10 01:54N 38°35' W 090°12'0 0.4
2018-May-10 01:24N 38°35' W 090°12'0 0.4
2018-May-10 01:00N 38°35' W 090°12'0 0.1
2018-May-10 00:27N 38°35' W 090°12'0 0.2
2018-May-10 00:00N 38°35' W 090°12'0 0.5
2018-May-09 23:30N 38°36' W 090°12'0 0.4
2018-May-09 22:58N 38°35' W 090°12'4 0.3
2018-May-09 08:24N 38°39' W 090°11'1 3.0
2018-May-09 07:58N 38°38' W 090°11'2 2.6
2018-May-09 07:22N 38°36' W 090°11'1 2.1
2018-May-09 07:00N 38°36' W 090°12'0 0.0
2018-May-08 22:29N 38°35' W 090°12'3 4.4
2018-May-08 21:48N 38°38' W 090°11'0 0.0
2018-May-08 21:25N 38°38' W 090°11'0 0.0
2018-May-08 20:59N 38°38' W 090°11'0 0.0
2018-May-08 20:27N 38°38' W 090°11'0 0.4
2018-May-08 20:00N 38°38' W 090°11'0 0.8
2018-May-08 19:25N 38°38' W 090°11'2 3.7
2018-May-08 19:00N 38°39' W 090°11'0 0.7
2018-May-08 18:31N 38°39' W 090°11'1 1.2
2018-May-08 18:00N 38°38' W 090°11'1 0.9
2018-May-08 17:25N 38°38' W 090°11'1 1.6
2018-May-08 17:01N 38°39' W 090°11'1 1.5
2018-May-08 16:31N 38°39' W 090°11'0 0.1
2018-May-08 16:01N 38°39' W 090°11'0 0.1
2018-May-08 15:27N 38°39' W 090°11'1 1.1
2018-May-08 14:56N 38°39' W 090°11'1 1.4
2018-May-08 14:21N 38°38' W 090°11'1 1.7
2018-May-08 14:00N 38°39' W 090°11'0 0.9
2018-May-08 13:30N 38°38' W 090°11'0 0.1
2018-May-08 13:00N 38°38' W 090°11'0 0.6
2018-May-08 12:29N 38°38' W 090°11'2 4.5
2018-May-08 12:01N 38°36' W 090°11'1 2.2
2018-May-08 11:30N 38°35' W 090°12'0 0.0
2018-May-08 10:48N 38°35' W 090°12'0 1.1
2018-May-08 10:30N 38°36' W 090°12'0 0.1
2018-May-08 10:00N 38°36' W 090°12'0 0.0
2018-May-08 09:30N 38°36' W 090°12'0 0.0
2018-May-08 09:00N 38°36' W 090°12'0 0.0
2018-May-08 08:30N 38°36' W 090°12'0 0.5
2018-May-08 07:58N 38°35' W 090°12'0 0.6
2018-May-08 07:31N 38°35' W 090°12'0 0.0
2018-May-08 06:59N 38°35' W 090°12'0 0.1
2018-May-08 06:30N 38°35' W 090°12'0 0.2
2018-May-08 06:00N 38°35' W 090°12'0 0.2
2018-May-08 05:30N 38°35' W 090°12'0 0.3
2018-May-08 04:59N 38°35' W 090°12'0 0.0
2018-May-08 04:31N 38°35' W 090°12'0 0.6
2018-May-08 03:58N 38°36' W 090°12'0 0.9
2018-May-08 03:30N 38°35' W 090°12'1 2.3
2018-May-08 02:59N 38°34' W 090°13'1 2.7
2018-May-08 02:28N 38°35' W 090°12'1 1.1
2018-May-08 02:00N 38°36' W 090°12'0 0.5
2018-May-08 01:31N 38°35' W 090°12'0 0.4
2018-May-08 01:00N 38°36' W 090°12'0 0.1
2018-May-08 00:30N 38°36' W 090°12'0 0.0
2018-May-07 23:51N 38°36' W 090°12'0 0.7
2018-May-07 23:30N 38°36' W 090°12'1 0.5
2018-May-07 22:25N 38°35' W 090°12'0 0.4
2018-May-07 22:01N 38°35' W 090°12'0 0.1
2018-May-07 21:29N 38°35' W 090°12'1 0.9
2018-May-07 20:45N 38°36' W 090°12'1 2.3
2018-May-07 20:29N 38°35' W 090°12'0 0.3
2018-May-07 19:57N 38°35' W 090°12'0 0.1
2018-May-07 19:27N 38°36' W 090°12'0 0.2
2018-May-07 19:00N 38°35' W 090°12'0 0.3
2018-May-07 18:26N 38°36' W 090°12'0 0.1
2018-May-07 17:10N 38°35' W 090°12'0 0.0
2018-May-07 17:00N 38°35' W 090°12'0 0.0
2018-May-07 16:26N 38°35' W 090°12'0 0.1
2018-May-07 15:53N 38°35' W 090°12'0 0.2
2018-May-07 15:31N 38°35' W 090°12'0 0.3
2018-May-07 15:00N 38°35' W 090°12'0 0.1
2018-May-07 14:29N 38°35' W 090°12'0 0.2
2018-May-07 12:42N 38°36' W 090°12'0 1.1
2018-May-07 12:29N 38°35' W 090°12'0 0.1
2018-May-07 12:00N 38°35' W 090°12'0 0.1
2018-May-07 10:44N 38°35' W 090°12'2 7.1
2018-May-07 10:29N 38°37' W 090°11'2 5.0
2018-May-07 09:59N 38°39' W 090°11'0 0.3
2018-May-07 09:28N 38°39' W 090°11'0 0.1
2018-May-07 09:01N 38°39' W 090°11'0 0.1
2018-May-07 08:29N 38°39' W 090°11'0 0.1
2018-May-07 08:00N 38°39' W 090°11'0 0.4
2018-May-07 07:30N 38°39' W 090°11'2 3.2
2018-May-07 07:00N 38°38' W 090°11'2 3.2
2018-May-07 06:30N 38°36' W 090°11'0 0.5
2018-May-07 05:54N 38°36' W 090°12'0 0.2
2018-May-07 05:30N 38°36' W 090°12'0 0.1
2018-May-07 05:00N 38°36' W 090°12'0 0.1
2018-May-07 04:30N 38°36' W 090°12'0 0.0
2018-May-07 04:01N 38°36' W 090°12'0 0.3
2018-May-07 03:27N 38°36' W 090°12'0 0.1
2018-May-07 02:41N 38°35' W 090°12'0 0.3
2018-May-07 02:30N 38°35' W 090°12'0 0.4
2018-May-07 01:49N 38°36' W 090°12'0 1.3
2018-May-07 01:28N 38°35' W 090°12'0 0.1
2018-May-07 00:50N 38°35' W 090°12'0 0.1
2018-May-07 00:30N 38°35' W 090°12'0 0.1
2018-May-06 23:59N 38°35' W 090°12'0 0.2
2018-May-06 23:26N 38°35' W 090°12'0 0.1
2018-May-06 21:37N 38°35' W 090°12'0 0.1
2018-May-06 19:43N 38°35' W 090°12'0 0.0
2018-May-06 19:20N 38°35' W 090°12'0 0.0
2018-May-06 18:03N 38°35' W 090°12'0 0.1
2018-May-06 18:01N 38°35' W 090°12'0 0.0
2018-May-06 17:31N 38°35' W 090°12'0 0.0
2018-May-06 16:57N 38°35' W 090°12'0 0.0
2018-May-06 16:30N 38°35' W 090°12'0 0.2
2018-May-06 14:37N 38°35' W 090°12'0 0.2
2018-May-06 14:30N 38°35' W 090°12'0 0.2
2018-May-06 14:01N 38°35' W 090°12'0 0.5
2018-May-06 13:31N 38°35' W 090°12'0 0.0
2018-May-06 12:54N 38°35' W 090°12'1 2.1
2018-May-06 12:30N 38°36' W 090°11'1 1.5
2018-May-06 12:00N 38°36' W 090°12'0 0.4
2018-May-06 11:31N 38°35' W 090°12'0 0.0
2018-May-06 11:00N 38°35' W 090°12'0 0.2
2018-May-06 10:30N 38°35' W 090°12'0 0.2
2018-May-06 10:01N 38°36' W 090°12'0 0.2
2018-May-06 09:29N 38°35' W 090°12'0 0.3
2018-May-06 09:00N 38°36' W 090°12'0 0.1
2018-May-06 06:58N 38°35' W 090°12'0 0.1
2018-May-06 05:43N 38°36' W 090°12'0 0.8
2018-May-06 05:28N 38°36' W 090°12'0 0.4
2018-May-06 05:00N 38°35' W 090°12'0 0.3
2018-May-06 04:26N 38°36' W 090°12'2 4.3
2018-May-06 04:01N 38°37' W 090°11'1 1.7
2018-May-06 03:26N 38°38' W 090°11'1 1.4
2018-May-06 02:59N 38°39' W 090°11'1 1.3
2018-May-06 02:29N 38°39' W 090°11'2 4.2
2018-May-06 02:01N 38°37' W 090°11'2 4.5
2018-May-06 01:30N 38°35' W 090°12'0 0.9
2018-May-06 01:00N 38°36' W 090°12'0 0.8
2018-May-06 00:30N 38°35' W 090°12'0 0.3
2018-May-06 00:00N 38°35' W 090°12'0 0.0
2018-May-05 20:47N 38°35' W 090°12'0 0.1
2018-May-05 20:22N 38°35' W 090°12'0 0.7
2018-May-05 19:52N 38°35' W 090°12'0 0.9
2018-May-05 19:29N 38°35' W 090°12'1 1.3
2018-May-05 18:35N 38°36' W 090°11'0 4.7
2018-May-05 18:30N 38°36' W 090°11'1 2.3
2018-May-05 17:58N 38°35' W 090°12'5 3.3
2018-May-05 16:20N 38°41' W 090°11'  

Dump ship's entire track history